Impacts TAF Board INFO
FOR SITUATIONAL AWARENESS. NOT TO BE USED FOR FLIGHT PLANNING PURPOSES.
IDs:

KMOB - Mobile Rgnl, AL, US

Issued at 1723 UTC 18 Jan 2018
Updated at 1723 UTC 18 Jan 2018
Potential Impact None Slight Moderate High
Time1656Z 18/18Z 18/19Z 18/20Z 18/21Z 18/22Z 18/23Z 19/00Z 19/01Z 19/02Z 19/03Z 19/04Z 19/05Z 19/06Z>>
Type OBS PRVL PRVL PRVL PRVL PRVL PRVL PRVL PRVL PRVL PRVL PRVL PRVL PRVL
VIS 10 >6 >6 >6 >6 >6 >6 >6 >6 >6 >6 >6 >6 >6
CIG -- -- -- -- -- -- -- -- -- -- -- -- -- --
Cover CLR SKC SKC SKC SKC SKC SKC SKC SKC SKC SKC SKC SKC SKC
FltCat VFR VFR VFR VFR VFR VFR VFR VFR VFR VFR VFR VFR VFR VFR
WX -- -- -- -- -- -- -- -- -- -- -- -- -- --
WDir 20 20 20 20 20 20 20 20 20 20 VRB VRB VRB VRB
WSpd 8 8 8 8 8 8 8 8 8 8 0 0 0 0
WGst -- -- -- -- -- -- -- -- -- -- -- -- -- --

Raw TAF
KMOB 181723Z 1818/1918 02008KT P6SM SKC
  FM190300 00000KT P6SM SKC


Raw METAR
KMOB 181656Z 02008KT 10SM CLR 02/M12 A3057 RMK AO2 SLP352 T00171117
KMOB 181556Z 36009KT 10SM CLR M01/M11 A3058 RMK AO2 SLP358 T10111111
KMOB 181456Z 01010KT 10SM CLR M03/M11 A3056 RMK AO2 SLP351 T10331106 51010

METAR Board
Radar Display
Forecast Discussion

FOR SITUATIONAL AWARENESS. NOT TO BE USED FOR FLIGHT PLANNING PURPOSES.